Estación de Peldehue
Ultimos registro cada 15 minutos 90
| N° | Estación | Fecha / Hora | Temperatura | Humedad | Lluvia | Velocidad | Dirección | Radiación | Presion |
| 90 | Peldehue | 04-05-2026 22:15 | 13,7 | 42,8 | 0 | 0 | 208 | 0,6 | 934,2 |
| 89 | Peldehue | 04-05-2026 22:00 | 13,7 | 41,8 | 0 | 0 | 208 | 0,6 | 934,3 |
| 88 | Peldehue | 04-05-2026 21:45 | 13,1 | 43,8 | 0 | 0 | 208 | 0,6 | 934,3 |
| 87 | Peldehue | 04-05-2026 21:30 | 12,4 | 45,1 | 0 | 0 | 208 | 0,6 | 934,3 |
| 86 | Peldehue | 04-05-2026 21:15 | 11,7 | 47,4 | 0 | 0 | 208 | 0,6 | 934,3 |
| 85 | Peldehue | 04-05-2026 21:00 | 11,9 | 47 | 0 | 0 | 208 | 0,6 | 934,2 |
| 84 | Peldehue | 04-05-2026 20:45 | 14 | 41,6 | 0 | 0 | 208 | 0,6 | 934,2 |
| 83 | Peldehue | 04-05-2026 20:30 | 14,3 | 40,5 | 0 | 0 | 208 | 0,6 | 934,1 |
| 82 | Peldehue | 04-05-2026 20:15 | 14 | 40,8 | 0 | 0,5 | 208 | 0,6 | 934,1 |
| 81 | Peldehue | 04-05-2026 20:00 | 14,6 | 39,6 | 0 | 0 | 208 | 0,6 | 934,1 |
| 80 | Peldehue | 04-05-2026 19:45 | 14,7 | 39,9 | 0 | 0,5 | 208 | 0,6 | 934 |
| 79 | Peldehue | 04-05-2026 19:30 | 14,6 | 41 | 0 | 0,5 | 208 | 0,6 | 934,1 |
| 78 | Peldehue | 04-05-2026 19:15 | 15,3 | 40,1 | 0 | 0 | 208 | 0,6 | 934 |
| 77 | Peldehue | 04-05-2026 19:00 | 15,5 | 40,9 | 0 | 0 | 208 | 0,6 | 934 |
| 76 | Peldehue | 04-05-2026 18:45 | 16,2 | 39,7 | 0 | 0 | 208 | 0,6 | 933,8 |
| 75 | Peldehue | 04-05-2026 18:30 | 17,1 | 36,6 | 0 | 0 | 212 | 0,6 | 933,9 |
| 74 | Peldehue | 04-05-2026 18:15 | 17,2 | 36,9 | 0 | 0 | 233 | 0,6 | 933,6 |
| 73 | Peldehue | 04-05-2026 18:00 | 18,2 | 35,1 | 0 | 0 | 233 | 5,6 | 933,3 |
| 72 | Peldehue | 04-05-2026 17:45 | 19,1 | 33,8 | 0 | 0 | 234 | 13,1 | 933,4 |
| 71 | Peldehue | 04-05-2026 17:30 | 20,1 | 30,7 | 0 | 0,5 | 239 | 23,1 | 933,7 |
| 70 | Peldehue | 04-05-2026 17:15 | 20,9 | 29,4 | 0 | 0,5 | 239 | 43,1 | 933,6 |
| 69 | Peldehue | 04-05-2026 17:00 | 21,5 | 28,2 | 0 | 1 | 227 | 34,4 | 933,7 |
| 68 | Peldehue | 04-05-2026 16:45 | 22 | 27,3 | 0 | 1 | 227 | 46,9 | 933,5 |
| 67 | Peldehue | 04-05-2026 16:30 | 22,3 | 26,9 | 0 | 1,5 | 234 | 119,4 | 933,6 |
| 66 | Peldehue | 04-05-2026 16:15 | 22,7 | 26,7 | 0 | 1,5 | 236 | 285,6 | 933,5 |
| 65 | Peldehue | 04-05-2026 16:00 | 22,8 | 25,9 | 0 | 1,5 | 234 | 231,9 | 933,2 |
| 64 | Peldehue | 04-05-2026 15:45 | 23,2 | 25,3 | 0 | 1,5 | 240 | 389,4 | 933,2 |
| 63 | Peldehue | 04-05-2026 15:30 | 23,3 | 25,4 | 0 | 1,5 | 233 | 393,1 | 933,4 |
| 62 | Peldehue | 04-05-2026 15:15 | 23 | 25,3 | 0 | 1,5 | 230 | 400,6 | 933,5 |
| 61 | Peldehue | 04-05-2026 15:00 | 23,1 | 25,1 | 0 | 1,5 | 240 | 361,9 | 933,5 |
| 60 | Peldehue | 04-05-2026 14:45 | 23,1 | 24,7 | 0 | 2 | 233 | 251,9 | 933,9 |
| 59 | Peldehue | 04-05-2026 14:30 | 23,9 | 23,8 | 0 | 2 | 232 | 438,1 | 933,8 |
| 58 | Peldehue | 04-05-2026 14:15 | 24,5 | 21,4 | 0 | 1,5 | 244 | 698,1 | 933,9 |
| 57 | Peldehue | 04-05-2026 14:00 | 24,1 | 22,1 | 0 | 1,5 | 229 | 550,6 | 934,2 |
| 56 | Peldehue | 04-05-2026 13:45 | 25 | 21,6 | 0 | 1 | 236 | 705,6 | 934,3 |
| 55 | Peldehue | 04-05-2026 13:30 | 25,2 | 21,2 | 0 | 1 | 240 | 776,9 | 934,5 |
| 54 | Peldehue | 04-05-2026 13:15 | 24,6 | 21,4 | 0 | 0,5 | 232 | 695,6 | 934,6 |
| 53 | Peldehue | 04-05-2026 13:00 | 24,4 | 22,3 | 0 | 1 | 250 | 536,9 | 935 |
| 52 | Peldehue | 04-05-2026 12:45 | 23,1 | 23 | 0 | 1 | 236 | 509,4 | 935,2 |
| 51 | Peldehue | 04-05-2026 12:30 | 23 | 24,5 | 0 | 1 | 230 | 575,6 | 935,2 |
| 50 | Peldehue | 04-05-2026 12:15 | 22,1 | 25,6 | 0 | 1,5 | 233 | 689,4 | 935,1 |
| 49 | Peldehue | 04-05-2026 12:00 | 21,9 | 25,9 | 0 | 2 | 234 | 754,4 | 935 |
| 48 | Peldehue | 04-05-2026 11:45 | 21,8 | 25,4 | 0 | 1,5 | 236 | 815,6 | 934,9 |
| 47 | Peldehue | 04-05-2026 11:30 | 21,8 | 25,9 | 0 | 1 | 233 | 536,9 | 935,2 |
| 46 | Peldehue | 04-05-2026 11:15 | 22,2 | 25,4 | 0 | 0 | 195 | 564,4 | 935,4 |
| 45 | Peldehue | 04-05-2026 11:00 | 22 | 24,6 | 0 | 0 | 188 | 474,4 | 935,6 |
| 44 | Peldehue | 04-05-2026 10:45 | 22,8 | 23,9 | 0 | 0 | 185 | 584,4 | 935,4 |
| 43 | Peldehue | 04-05-2026 10:30 | 22,2 | 23,3 | 0 | 0 | 185 | 454,4 | 935,5 |
| 42 | Peldehue | 04-05-2026 10:15 | 21,9 | 24,3 | 0 | 0 | 185 | 406,9 | 935,5 |
| 41 | Peldehue | 04-05-2026 10:00 | 20,7 | 27,5 | 0 | 0 | 185 | 416,9 | 935,5 |
| 40 | Peldehue | 04-05-2026 09:45 | 19,8 | 26,6 | 0 | 0 | 185 | 444,4 | 935,4 |
| 39 | Peldehue | 04-05-2026 09:30 | 17,3 | 34,6 | 0 | 0 | 185 | 394,4 | 935,2 |
| 38 | Peldehue | 04-05-2026 09:15 | 16 | 35,4 | 0 | 0 | 185 | 210,6 | 935,6 |
| 37 | Peldehue | 04-05-2026 09:00 | 14,3 | 41,6 | 0 | 0 | 185 | 179,4 | 935,2 |
| 36 | Peldehue | 04-05-2026 08:45 | 12,3 | 47,3 | 0 | 0 | 185 | 78,1 | 935,3 |
| 35 | Peldehue | 04-05-2026 08:30 | 11,6 | 46,2 | 0 | 0 | 185 | 58,1 | 935,2 |
| 34 | Peldehue | 04-05-2026 08:15 | 10,6 | 47,1 | 0 | 0 | 185 | 66,9 | 935,1 |
| 33 | Peldehue | 04-05-2026 08:00 | 9,8 | 50 | 0 | 0 | 185 | 41,9 | 935 |
| 32 | Peldehue | 04-05-2026 07:45 | 9,4 | 48,1 | 0 | 0 | 185 | 20,6 | 934,9 |
| 31 | Peldehue | 04-05-2026 07:30 | 9,1 | 48,9 | 0 | 0 | 185 | 5,6 | 934,9 |
| 30 | Peldehue | 04-05-2026 07:15 | 9,3 | 49 | 0 | 0 | 185 | 1,9 | 934,9 |
| 29 | Peldehue | 04-05-2026 07:00 | 9,3 | 50,2 | 0 | 0 | 185 | 0,6 | 934,9 |
| 28 | Peldehue | 04-05-2026 06:45 | 9,2 | 51,9 | 0 | 0 | 185 | 0,6 | 934,8 |
| 27 | Peldehue | 04-05-2026 06:30 | 9,8 | 48,8 | 0 | 0 | 185 | 0,6 | 934,9 |
| 26 | Peldehue | 04-05-2026 06:15 | 9,4 | 50 | 0 | 0 | 185 | 0,6 | 934,9 |
| 25 | Peldehue | 04-05-2026 06:00 | 9,5 | 49,1 | 0 | 0 | 185 | 0,6 | 934,8 |
| 24 | Peldehue | 04-05-2026 05:45 | 9,8 | 47,5 | 0 | 0 | 185 | 0,6 | 934,7 |
| 23 | Peldehue | 04-05-2026 05:30 | 9,5 | 48,4 | 0 | 0 | 185 | 0,6 | 934,9 |
| 22 | Peldehue | 04-05-2026 05:15 | 9,9 | 46,8 | 0 | 0 | 185 | 0,6 | 934,7 |
| 21 | Peldehue | 04-05-2026 05:00 | 9,3 | 46,8 | 0 | 0 | 185 | 0,6 | 934,4 |
| 20 | Peldehue | 04-05-2026 04:45 | 7,8 | 52,4 | 0 | 0 | 185 | 0,6 | 934,5 |
| 19 | Peldehue | 04-05-2026 04:30 | 8,4 | 49,7 | 0 | 0 | 185 | 0,6 | 934,4 |
| 18 | Peldehue | 04-05-2026 04:15 | 8,4 | 49,1 | 0 | 0 | 185 | 0,6 | 934,7 |
| 17 | Peldehue | 04-05-2026 04:00 | 7,8 | 50,4 | 0 | 0 | 185 | 0,6 | 934,9 |
| 16 | Peldehue | 04-05-2026 03:45 | 9 | 46,7 | 0 | 0,5 | 185 | 0,6 | 934,9 |
| 15 | Peldehue | 04-05-2026 03:30 | 8,7 | 46,7 | 0 | 0,5 | 185 | 0,6 | 935 |
| 14 | Peldehue | 04-05-2026 03:15 | 9 | 46,1 | 0 | 0 | 185 | 0,6 | 935,3 |
| 13 | Peldehue | 04-05-2026 03:00 | 9,1 | 46,5 | 0 | 0 | 185 | 0,6 | 935,3 |
| 12 | Peldehue | 04-05-2026 02:45 | 9,4 | 46,7 | 0 | 0 | 185 | 0,6 | 935,3 |
| 11 | Peldehue | 04-05-2026 02:30 | 8,5 | 48,1 | 0 | 0 | 185 | 0,6 | 935,6 |
| 10 | Peldehue | 04-05-2026 02:15 | 8,7 | 46,7 | 0 | 0 | 185 | 0,6 | 935,9 |
| 9 | Peldehue | 04-05-2026 02:00 | 10,7 | 42,5 | 0 | 0 | 185 | 0,6 | 936 |
| 8 | Peldehue | 04-05-2026 01:45 | 10,4 | 44,1 | 0 | 0 | 185 | 0,6 | 936,3 |
| 7 | Peldehue | 04-05-2026 01:30 | 9,9 | 44,9 | 0 | 0 | 185 | 0,6 | 936,6 |
| 6 | Peldehue | 04-05-2026 01:15 | 11 | 41,5 | 0 | 0 | 185 | 0,6 | 936,2 |
| 5 | Peldehue | 04-05-2026 01:00 | 10,8 | 42,4 | 0 | 0 | 185 | 0,6 | 936,3 |
| 4 | Peldehue | 04-05-2026 00:45 | 9,9 | 45,1 | 0 | 0 | 185 | 0,6 | 936,4 |
| 3 | Peldehue | 04-05-2026 00:30 | 10,8 | 41,7 | 0 | 0 | 185 | 0,6 | 936,1 |
| 2 | Peldehue | 04-05-2026 00:15 | 9,9 | 47 | 0 | 0 | 185 | 0,6 | 936,2 |
| 1 | Peldehue | 04-05-2026 00:00 | 10,5 | 43,8 | 0 | 0 | 185 | 0,6 | 936,4 |